createdAt,value
2019-03-08T00:00:35.278Z,91.10
2019-03-08T00:03:04.879Z,91.20
2019-03-08T00:05:33.904Z,91.20
2019-03-08T00:08:02.801Z,91.30
2019-03-08T00:10:31.808Z,91.30
2019-03-08T00:13:00.819Z,91.50
2019-03-08T00:15:29.806Z,91.70
2019-03-08T00:17:58.715Z,91.80
2019-03-08T00:20:27.608Z,92.20
2019-03-08T00:22:56.604Z,92.20
2019-03-08T00:25:25.615Z,92.40
2019-03-08T00:27:54.594Z,92.60
2019-03-08T00:30:23.520Z,92.90
2019-03-08T00:32:52.399Z,92.90
2019-03-08T00:35:21.334Z,93.20
2019-03-08T00:37:50.282Z,93.30
2019-03-08T00:40:19.241Z,93.40
2019-03-08T00:42:48.143Z,93.50
2019-03-08T00:45:20.310Z,93.60
2019-03-08T00:47:49.297Z,93.70
2019-03-08T00:50:18.312Z,93.70
2019-03-08T00:52:47.205Z,93.80
2019-03-08T00:55:16.219Z,93.80
2019-03-08T00:57:45.160Z,93.80
2019-03-08T01:00:19.269Z,93.80
2019-03-08T01:02:48.488Z,93.70
2019-03-08T01:05:18.366Z,93.80
2019-03-08T01:07:47.371Z,93.80
2019-03-08T01:10:21.373Z,93.60
2019-03-08T01:12:50.322Z,93.60
2019-03-08T01:15:19.555Z,93.60
2019-03-08T01:17:48.581Z,93.50
2019-03-08T01:20:21.046Z,93.60
2019-03-08T01:22:50.206Z,93.70
2019-03-08T01:25:21.483Z,93.80
2019-03-08T01:27:58.573Z,93.60
2019-03-08T01:30:27.557Z,93.70
2019-03-08T01:32:56.438Z,93.80
2019-03-08T01:35:25.495Z,93.80
2019-03-08T01:37:55.028Z,93.80
2019-03-08T01:40:23.982Z,93.70
2019-03-08T01:42:52.834Z,93.90
2019-03-08T01:45:21.908Z,93.90
2019-03-08T01:47:50.919Z,93.80
2019-03-08T01:50:20.012Z,93.80
2019-03-08T01:52:48.925Z,93.90
2019-03-08T01:55:17.954Z,93.90
2019-03-08T01:57:46.850Z,94.00
2019-03-08T02:00:18.577Z,94.10
2019-03-08T02:02:47.575Z,94.00
2019-03-08T02:05:17.346Z,94.10
2019-03-08T02:07:46.346Z,94.40
2019-03-08T02:10:16.980Z,94.40
2019-03-08T02:12:46.079Z,94.40
2019-03-08T02:15:17.413Z,94.40
2019-03-08T02:17:46.286Z,94.30
2019-03-08T02:20:22.914Z,94.40
2019-03-08T02:22:51.870Z,94.40
2019-03-08T02:25:20.762Z,94.30
2019-03-08T02:27:49.704Z,94.40
2019-03-08T02:30:19.287Z,94.30
2019-03-08T02:32:48.226Z,94.40
2019-03-08T02:35:19.650Z,94.50
2019-03-08T02:37:48.554Z,94.40
2019-03-08T02:40:32.327Z,94.70
2019-03-08T02:43:02.511Z,94.90
2019-03-08T02:45:31.554Z,94.90
2019-03-08T02:48:00.446Z,94.90
2019-03-08T02:50:29.501Z,94.70
2019-03-08T02:52:58.440Z,94.60
2019-03-08T02:55:27.340Z,94.40
2019-03-08T02:57:56.317Z,94.30
2019-03-08T03:00:28.523Z,94.30
2019-03-08T03:02:57.454Z,94.20
2019-03-08T03:05:26.446Z,94.20
2019-03-08T03:07:55.366Z,94.20
2019-03-08T03:10:24.791Z,94.20
2019-03-08T03:12:53.881Z,94.20
2019-03-08T03:15:22.972Z,94.20
2019-03-08T03:17:51.852Z,94.10
2019-03-08T03:20:20.947Z,94.10
2019-03-08T03:22:49.975Z,94.00
2019-03-08T03:25:18.979Z,93.70
2019-03-08T03:27:47.905Z,93.60
2019-03-08T03:30:19.144Z,93.40
2019-03-08T03:32:48.086Z,93.30
2019-03-08T03:35:17.222Z,93.10
2019-03-08T03:37:46.690Z,93.00
2019-03-08T03:40:19.714Z,92.80
2019-03-08T03:42:48.675Z,92.70
2019-03-08T03:45:21.081Z,92.50
2019-03-08T03:47:50.109Z,92.50
2019-03-08T03:50:19.065Z,92.50
2019-03-08T03:52:48.004Z,92.00
2019-03-08T03:55:18.004Z,91.70
2019-03-08T03:57:47.310Z,92.00
2019-03-08T04:00:24.429Z,92.10
2019-03-08T04:02:53.765Z,91.90
2019-03-08T04:05:22.814Z,91.80
2019-03-08T04:07:51.689Z,91.70
2019-03-08T04:10:20.730Z,91.20
2019-03-08T04:12:49.689Z,91.40
2019-03-08T04:15:22.294Z,91.50
2019-03-08T04:17:51.243Z,91.10
2019-03-08T04:20:20.926Z,90.80
2019-03-08T04:22:49.862Z,90.80
2019-03-08T04:25:18.892Z,90.50
2019-03-08T04:27:47.953Z,90.90
2019-03-08T04:30:24.148Z,90.90
2019-03-08T04:32:53.082Z,91.30
2019-03-08T04:35:22.093Z,91.60
2019-03-08T04:37:50.977Z,91.80
2019-03-08T04:40:20.009Z,91.90
2019-03-08T04:42:48.878Z,91.90
2019-03-08T04:45:17.986Z,92.00
2019-03-08T04:47:46.966Z,92.40
2019-03-08T04:50:16.751Z,92.50
2019-03-08T04:52:45.755Z,92.50
2019-03-08T04:55:17.496Z,92.60
2019-03-08T04:57:47.397Z,92.50
2019-03-08T05:00:17.790Z,92.50
2019-03-08T05:02:46.676Z,92.40
2019-03-08T05:05:15.750Z,92.50
2019-03-08T05:07:44.802Z,92.40
2019-03-08T05:10:18.500Z,92.40
2019-03-08T05:12:47.430Z,92.50
2019-03-08T05:15:16.540Z,92.40
2019-03-08T05:17:45.501Z,92.10
2019-03-08T05:20:14.479Z,92.10
2019-03-08T05:22:43.395Z,92.00
2019-03-08T05:25:13.939Z,91.90
2019-03-08T05:27:42.916Z,92.20
2019-03-08T05:30:16.719Z,92.20
2019-03-08T05:32:45.605Z,92.00
2019-03-08T05:35:18.097Z,92.00
2019-03-08T05:37:47.067Z,91.70
2019-03-08T05:40:28.863Z,91.70
2019-03-08T05:42:57.880Z,91.90
2019-03-08T05:45:26.826Z,91.80
2019-03-08T05:47:55.713Z,91.90
2019-03-08T05:50:24.942Z,91.60
2019-03-08T05:52:53.873Z,91.60
2019-03-08T05:55:22.814Z,91.60
2019-03-08T05:57:51.755Z,91.40
2019-03-08T06:00:31.930Z,91.50
2019-03-08T06:02:55.790Z,91.50
2019-03-08T06:05:24.939Z,91.90
2019-03-08T06:07:53.837Z,91.60
2019-03-08T06:10:30.608Z,91.70
2019-03-08T06:13:00.386Z,91.50
2019-03-08T06:15:29.416Z,91.60
2019-03-08T06:17:59.212Z,91.60
2019-03-08T06:20:28.374Z,91.60
2019-03-08T06:22:57.412Z,91.70
2019-03-08T06:25:26.519Z,91.60
2019-03-08T06:27:55.463Z,91.50
2019-03-08T06:30:24.334Z,91.50
2019-03-08T06:32:53.923Z,91.20
2019-03-08T06:35:22.854Z,91.40
2019-03-08T06:37:51.795Z,91.50
2019-03-08T06:40:20.669Z,91.70
2019-03-08T06:42:49.555Z,91.60
2019-03-08T06:45:18.987Z,91.80
2019-03-08T06:47:49.462Z,91.40
2019-03-08T06:50:19.182Z,91.20
2019-03-08T06:52:48.230Z,91.20
2019-03-08T06:55:18.879Z,90.70
2019-03-08T06:57:51.143Z,91.20
2019-03-08T07:00:23.651Z,90.50
2019-03-08T07:02:52.568Z,90.50
2019-03-08T07:05:21.445Z,90.00
2019-03-08T07:07:50.398Z,88.40
2019-03-08T07:10:19.337Z,88.10
2019-03-08T07:12:48.806Z,88.60
2019-03-08T07:15:18.434Z,89.50
2019-03-08T07:17:47.451Z,89.90
2019-03-08T07:20:19.233Z,89.00
2019-03-08T07:22:49.754Z,89.90
2019-03-08T07:25:36.961Z,90.20
2019-03-08T07:28:11.011Z,90.00
2019-03-08T07:30:47.578Z,90.10
2019-03-08T07:33:18.780Z,89.80
2019-03-08T07:35:58.742Z,90.50
2019-03-08T07:38:38.195Z,91.10
2019-03-08T07:41:11.386Z,91.10
2019-03-08T07:43:48.174Z,90.90
2019-03-08T07:46:18.696Z,90.40
2019-03-08T07:48:49.202Z,90.70
2019-03-08T07:51:22.752Z,90.30
2019-03-08T07:53:56.090Z,89.90
2019-03-08T07:56:33.011Z,90.30
2019-03-08T07:59:09.408Z,90.60
2019-03-08T08:01:52.514Z,90.80
2019-03-08T08:04:39.433Z,91.00
2019-03-08T08:07:24.866Z,89.60
2019-03-08T08:10:13.210Z,90.50
2019-03-08T08:12:58.617Z,90.40
2019-03-08T08:15:40.848Z,90.70
2019-03-08T08:18:11.573Z,90.50
2019-03-08T08:20:44.916Z,90.60
2019-03-08T08:23:18.681Z,90.80
2019-03-08T08:25:49.201Z,90.60
2019-03-08T08:28:19.777Z,91.00
2019-03-08T08:31:02.598Z,91.10
2019-03-08T08:33:42.042Z,90.90
2019-03-08T08:36:30.545Z,91.20
2019-03-08T08:39:13.013Z,91.10
2019-03-08T08:41:46.360Z,91.20
2019-03-08T08:44:16.872Z,91.00
2019-03-08T08:46:50.171Z,90.40
2019-03-08T08:49:23.938Z,89.50
2019-03-08T08:51:54.407Z,89.20
2019-03-08T08:54:24.959Z,90.10
2019-03-08T08:57:11.922Z,90.40
2019-03-08T08:59:59.105Z,90.10
2019-03-08T09:02:46.093Z,88.60
2019-03-08T09:05:22.763Z,86.90
2019-03-08T09:07:53.359Z,87.10
2019-03-08T09:10:40.082Z,86.60
2019-03-08T09:13:16.586Z,86.30
2019-03-08T09:15:53.067Z,86.70
2019-03-08T09:18:26.547Z,86.80
2019-03-08T09:21:09.300Z,87.50
2019-03-08T09:23:42.853Z,88.60
2019-03-08T09:26:22.338Z,84.70
2019-03-08T09:29:01.808Z,85.50
2019-03-08T09:31:32.534Z,86.00
2019-03-08T09:34:12.113Z,85.50
2019-03-08T09:36:51.635Z,84.70
2019-03-08T09:39:34.299Z,85.70
2019-03-08T09:42:07.823Z,85.00
2019-03-08T09:44:41.066Z,83.30
2019-03-08T09:47:20.475Z,83.10
2019-03-08T09:49:59.448Z,85.90
2019-03-08T09:52:29.972Z,82.20
2019-03-08T09:55:00.671Z,82.00
2019-03-08T09:57:43.101Z,82.20
2019-03-08T10:00:15.907Z,79.90
2019-03-08T10:02:49.368Z,81.40
2019-03-08T10:05:38.183Z,82.10
2019-03-08T10:08:26.996Z,80.60
2019-03-08T10:10:57.461Z,80.90
2019-03-08T10:13:33.525Z,81.50
2019-03-08T10:16:06.527Z,81.00
2019-03-08T10:18:48.976Z,80.00
2019-03-08T10:21:25.446Z,79.70
2019-03-08T10:23:55.969Z,81.60
2019-03-08T10:26:35.741Z,78.00
2019-03-08T10:29:06.246Z,76.30
2019-03-08T10:31:42.999Z,72.90
2019-03-08T10:34:25.838Z,74.10
2019-03-08T10:37:05.391Z,75.30
2019-03-08T10:39:50.872Z,76.40
2019-03-08T10:42:36.236Z,77.40
2019-03-08T10:45:08.706Z,72.10
2019-03-08T10:50:58.865Z,73.50
2019-03-08T10:58:02.439Z,75.50
2019-03-08T11:07:21.190Z,71.20
2019-03-08T11:11:17.717Z,70.00
2019-03-08T11:16:27.060Z,68.10
2019-03-08T11:19:08.972Z,71.90
2019-03-08T11:22:06.015Z,67.10
2019-03-08T11:24:57.615Z,66.50
2019-03-08T11:27:55.012Z,65.20
2019-03-08T11:30:53.809Z,64.30
2019-03-08T11:34:04.181Z,66.70
2019-03-08T11:36:38.804Z,69.30
2019-03-08T11:39:40.606Z,69.80
2019-03-08T11:42:32.547Z,72.20
2019-03-08T11:45:26.225Z,72.80
2019-03-08T11:48:23.812Z,72.30
2019-03-08T11:51:11.211Z,69.50
2019-03-08T11:53:41.732Z,69.80
2019-03-08T11:59:09.127Z,70.80
2019-03-08T12:02:45.621Z,71.60
2019-03-08T12:05:02.579Z,74.70
2019-03-08T12:07:49.656Z,73.40
2019-03-08T12:23:42.478Z,74.70
2019-03-08T12:26:32.966Z,75.20
2019-03-08T12:29:09.515Z,75.90
2019-03-08T12:31:59.586Z,77.40
2019-03-08T12:34:48.504Z,76.60
2019-03-08T12:37:29.710Z,76.70
2019-03-08T12:40:02.948Z,76.60
2019-03-08T12:42:39.489Z,77.20
2019-03-08T12:45:18.202Z,77.70
2019-03-08T12:48:04.055Z,78.60
2019-03-08T12:50:49.742Z,77.50
2019-03-08T12:53:20.464Z,79.60
2019-03-08T12:55:59.898Z,79.50
2019-03-08T12:58:30.512Z,79.60
2019-03-08T13:01:00.972Z,79.40
2019-03-08T13:03:31.533Z,79.50
2019-03-08T13:06:07.650Z,79.50
2019-03-08T13:08:38.185Z,80.70
2019-03-08T13:11:07.193Z,81.00
2019-03-08T13:13:36.081Z,79.70
2019-03-08T13:16:05.401Z,81.10
2019-03-08T13:18:34.388Z,83.40
2019-03-08T13:21:03.356Z,82.50
2019-03-08T13:23:32.365Z,81.40
2019-03-08T13:26:01.369Z,82.30
2019-03-08T13:28:30.284Z,82.90
2019-03-08T13:30:59.227Z,83.20
2019-03-08T13:33:28.253Z,82.50
2019-03-08T13:35:57.227Z,81.60
2019-03-08T13:38:26.149Z,82.60
2019-03-08T13:40:55.087Z,83.00
2019-03-08T13:43:23.989Z,83.40
2019-03-08T13:46:00.394Z,83.10
2019-03-08T13:48:31.146Z,83.40
2019-03-08T13:51:01.694Z,84.10
2019-03-08T13:53:30.649Z,83.40
2019-03-08T13:55:59.545Z,83.80
2019-03-08T13:58:28.699Z,82.60
2019-03-08T14:00:57.603Z,82.70
2019-03-08T14:03:26.478Z,82.50
2019-03-08T14:05:55.469Z,81.70
2019-03-08T14:08:24.364Z,82.60
2019-03-08T14:10:53.291Z,83.00
2019-03-08T14:13:22.427Z,83.80
2019-03-08T14:15:51.362Z,83.20
2019-03-08T14:18:20.295Z,84.60
2019-03-08T14:20:49.220Z,84.10
2019-03-08T14:23:18.239Z,84.80
2019-03-08T14:25:47.136Z,85.10
2019-03-08T14:28:16.034Z,86.40
2019-03-08T14:30:46.544Z,86.70
2019-03-08T14:33:15.419Z,86.70
2019-03-08T14:35:44.501Z,87.20
2019-03-08T14:38:13.389Z,86.90
2019-03-08T14:40:44.020Z,87.20
2019-03-08T14:43:20.323Z,87.60
2019-03-08T14:45:53.903Z,87.90
2019-03-08T14:48:22.775Z,87.10
2019-03-08T14:50:51.766Z,87.20
2019-03-08T14:53:20.638Z,87.70
2019-03-08T14:55:49.586Z,87.70
2019-03-08T14:58:18.463Z,88.10
2019-03-08T15:00:47.474Z,88.40
2019-03-08T15:03:16.380Z,87.80
2019-03-08T15:05:47.122Z,87.60
2019-03-08T15:08:17.817Z,87.60
2019-03-08T15:10:47.658Z,87.70
2019-03-08T15:13:20.066Z,89.00
2019-03-08T15:15:48.003Z,88.40
2019-03-08T15:18:17.372Z,88.90
2019-03-08T15:20:46.254Z,88.60
2019-03-08T15:23:17.135Z,88.90
2019-03-08T15:25:49.065Z,89.00
2019-03-08T15:28:16.412Z,89.10
2019-03-08T15:30:45.821Z,89.10
2019-03-08T15:33:14.769Z,88.90
2019-03-08T15:35:43.807Z,88.50
2019-03-08T15:38:12.749Z,88.50
2019-03-08T15:40:41.707Z,88.60
2019-03-08T15:43:13.611Z,88.40
2019-03-08T15:45:44.678Z,88.60
2019-03-08T15:48:14.584Z,89.40
2019-03-08T15:50:42.853Z,89.30
2019-03-08T15:53:12.821Z,89.00
2019-03-08T15:55:52.264Z,89.80
2019-03-08T15:58:12.853Z,89.80
2019-03-08T16:00:41.862Z,89.50
2019-03-08T16:03:10.831Z,89.00
2019-03-08T16:05:39.700Z,88.70
2019-03-08T16:08:08.669Z,88.80
2019-03-08T16:10:37.612Z,89.70
2019-03-08T16:13:06.686Z,89.30
2019-03-08T16:15:36.099Z,89.30
2019-03-08T16:18:05.204Z,89.60
2019-03-08T16:20:37.261Z,88.80
2019-03-08T16:23:06.508Z,89.10
2019-03-08T16:25:35.343Z,88.80
2019-03-08T16:28:04.327Z,89.10
2019-03-08T16:33:23.198Z,89.00
2019-03-08T16:35:58.406Z,89.40
2019-03-08T16:38:46.663Z,89.40
2019-03-08T16:41:22.687Z,89.80
2019-03-08T16:43:58.452Z,89.10
2019-03-08T16:46:34.279Z,89.40
2019-03-08T16:49:14.784Z,89.30
2019-03-08T16:52:02.002Z,89.00
2019-03-08T16:54:35.140Z,89.60
2019-03-08T16:57:20.590Z,89.10
2019-03-08T16:59:54.003Z,89.70
2019-03-08T17:02:24.503Z,89.20
2019-03-08T17:05:03.790Z,89.40
2019-03-08T17:07:34.460Z,88.30
2019-03-08T17:10:08.174Z,89.00
2019-03-08T17:12:41.759Z,89.30
2019-03-08T17:15:12.567Z,87.90
2019-03-08T17:17:54.938Z,88.20
2019-03-08T17:20:37.318Z,89.00
2019-03-08T17:23:11.040Z,88.20
2019-03-08T17:25:47.716Z,88.90
2019-03-08T17:28:20.954Z,88.60
2019-03-08T17:31:07.021Z,89.20
2019-03-08T17:33:55.312Z,89.50
2019-03-08T17:36:25.862Z,89.80
2019-03-08T17:38:56.397Z,90.00
2019-03-08T17:41:29.871Z,90.30
2019-03-08T17:44:03.591Z,90.50
2019-03-08T17:46:52.207Z,90.60
2019-03-08T17:49:22.781Z,90.70
2019-03-08T17:51:53.311Z,90.50
2019-03-08T17:54:39.208Z,90.30
2019-03-08T17:57:25.338Z,90.20
2019-03-08T18:00:01.719Z,90.30
2019-03-08T18:02:37.835Z,90.20
2019-03-08T18:05:11.870Z,90.20
2019-03-08T18:07:54.245Z,90.20
2019-03-08T18:10:30.947Z,90.20
2019-03-08T18:13:01.584Z,90.10
2019-03-08T18:15:32.207Z,90.00
2019-03-08T18:18:02.787Z,90.00
2019-03-08T18:20:33.314Z,89.80
2019-03-08T18:23:20.109Z,89.70
2019-03-08T18:25:58.082Z,90.00
2019-03-08T18:28:44.970Z,89.90
2019-03-08T18:31:15.914Z,89.90
2019-03-08T18:33:46.475Z,89.80
2019-03-08T18:36:21.511Z,89.70
2019-03-08T18:39:07.250Z,89.50
2019-03-08T18:41:38.054Z,89.60
2019-03-08T18:44:14.505Z,90.00
2019-03-08T18:47:01.800Z,90.70
2019-03-08T18:49:44.734Z,91.00
2019-03-08T18:52:30.404Z,92.20
2019-03-08T18:55:07.292Z,92.70
2019-03-08T18:57:42.339Z,93.70
2019-03-08T19:00:31.429Z,94.20
2019-03-08T19:03:12.178Z,95.00
2019-03-08T19:06:00.421Z,95.80
2019-03-08T19:08:33.695Z,95.80
2019-03-08T19:11:13.207Z,95.70
2019-03-08T19:13:43.791Z,96.10
2019-03-08T19:16:23.409Z,96.50
2019-03-08T19:19:09.066Z,96.40
2019-03-08T19:21:48.884Z,96.30
2019-03-08T19:24:21.969Z,96.20
2019-03-08T19:26:52.480Z,96.60
2019-03-08T19:29:22.952Z,96.30
2019-03-08T19:31:55.979Z,96.30
2019-03-08T19:34:34.937Z,96.20
2019-03-08T19:37:11.186Z,96.50
2019-03-08T19:39:41.721Z,96.50
2019-03-08T19:42:18.115Z,96.50
2019-03-08T19:44:54.462Z,96.30
2019-03-08T19:47:27.729Z,96.50
2019-03-08T19:50:14.895Z,96.50
2019-03-08T19:52:51.529Z,96.10
2019-03-08T19:55:22.222Z,96.50
2019-03-08T19:58:01.741Z,96.40
2019-03-08T20:00:35.032Z,96.50
2019-03-08T20:03:21.561Z,96.60
2019-03-08T20:05:52.439Z,96.70
2019-03-08T20:18:46.111Z,96.70
2019-03-08T20:21:31.875Z,96.80
2019-03-08T20:24:03.690Z,96.40
2019-03-08T20:26:40.031Z,96.00
2019-03-08T20:29:16.259Z,95.80
2019-03-08T20:31:59.524Z,95.80
2019-03-08T20:34:39.290Z,96.10
2019-03-08T20:37:25.285Z,95.70
2019-03-08T20:40:16.739Z,95.70
2019-03-08T20:42:56.919Z,95.80
2019-03-08T20:45:33.836Z,95.50
2019-03-08T20:48:02.831Z,95.40
2019-03-08T20:50:31.882Z,95.10
2019-03-08T20:53:01.056Z,95.20
2019-03-08T20:55:31.678Z,95.10
2019-03-08T20:58:00.826Z,95.00
2019-03-08T21:00:29.758Z,94.90
2019-03-08T21:02:58.733Z,94.70
2019-03-08T21:05:27.907Z,94.30
2019-03-08T21:07:57.149Z,94.30
2019-03-08T21:10:26.135Z,94.20
2019-03-08T21:12:55.286Z,93.60
2019-03-08T21:15:25.603Z,93.40
2019-03-08T21:17:54.823Z,93.20
2019-03-08T21:20:23.765Z,93.20
2019-03-08T21:22:52.785Z,92.70
2019-03-08T21:25:21.749Z,92.80
2019-03-08T21:27:50.646Z,92.60
2019-03-08T21:30:20.962Z,92.60
2019-03-08T21:32:49.838Z,92.10
2019-03-08T21:35:22.540Z,92.30
2019-03-08T21:37:59.998Z,92.10
2019-03-08T21:43:44.753Z,91.80
2019-03-08T21:46:20.364Z,91.70
2019-03-08T21:49:06.707Z,91.50
2019-03-08T21:51:56.094Z,91.40
2019-03-08T21:54:28.494Z,91.50
2019-03-08T21:57:01.923Z,91.60
2019-03-08T21:59:36.565Z,91.60
2019-03-08T22:02:06.029Z,91.50
2019-03-08T22:05:10.099Z,91.50
2019-03-08T22:07:22.058Z,91.60
2019-03-08T22:10:10.957Z,91.60
2019-03-08T22:12:39.996Z,91.60
2019-03-08T22:15:19.374Z,91.60
2019-03-08T22:19:34.857Z,91.50
2019-03-08T22:20:36.172Z,91.60
2019-03-08T22:23:09.817Z,91.60
2019-03-08T22:29:07.283Z,91.60
2019-03-08T22:31:36.216Z,91.70
2019-03-08T22:34:05.707Z,91.80
2019-03-08T22:36:51.451Z,91.80
2019-03-08T22:45:50.065Z,91.60
2019-03-08T22:48:47.012Z,91.60
2019-03-08T22:57:21.483Z,91.10
2019-03-08T23:00:14.110Z,91.00
2019-03-08T23:03:00.530Z,90.70
2019-03-08T23:08:44.469Z,90.80
2019-03-08T23:13:57.858Z,90.60
2019-03-08T23:17:13.401Z,90.70
2019-03-08T23:20:03.077Z,90.50
2019-03-08T23:20:42.110Z,90.60
2019-03-08T23:25:11.210Z,90.30
2019-03-08T23:27:41.694Z,90.40
2019-03-08T23:30:12.746Z,90.30
2019-03-08T23:32:42.985Z,90.10
2019-03-08T23:35:11.924Z,90.20
2019-03-08T23:37:41.680Z,90.10
2019-03-08T23:40:11.104Z,90.10
2019-03-08T23:42:40.070Z,90.10
2019-03-08T23:45:10.158Z,90.10
2019-03-08T23:47:39.105Z,90.30
2019-03-08T23:50:09.490Z,90.40
2019-03-08T23:52:38.462Z,90.60
2019-03-08T23:55:10.144Z,90.60
2019-03-08T23:57:39.150Z,90.20
